createdAt,value
2022-11-28T00:00:13.672Z,29.83
2022-11-28T00:02:43.612Z,29.00
2022-11-28T00:05:17.105Z,32.97
2022-11-28T00:07:46.632Z,29.00
2022-11-28T00:10:16.561Z,26.35
2022-11-28T00:12:45.652Z,22.08
2022-11-28T00:15:15.261Z,34.55
2022-11-28T00:17:44.445Z,24.90
2022-11-28T00:20:13.996Z,29.88
2022-11-28T00:22:46.351Z,28.23
2022-11-28T00:25:17.574Z,21.95
2022-11-28T00:27:46.699Z,32.20
2022-11-28T00:30:16.011Z,33.30
2022-11-28T00:32:47.709Z,31.40
2022-11-28T00:35:16.898Z,23.33
2022-11-28T00:37:48.368Z,32.20
2022-11-28T00:40:17.651Z,37.85
2022-11-28T00:42:46.792Z,29.90
2022-11-28T00:45:16.044Z,32.85
2022-11-28T00:47:45.136Z,29.05
2022-11-28T00:50:14.458Z,23.25
2022-11-28T00:52:43.525Z,26.77
2022-11-28T00:55:12.895Z,25.30
2022-11-28T00:57:42.103Z,26.95
2022-11-28T01:00:11.917Z,26.08
2022-11-28T01:02:41.124Z,29.75
2022-11-28T01:05:10.755Z,19.95
2022-11-28T01:07:43.364Z,19.17
2022-11-28T01:10:13.748Z,25.45
2022-11-28T01:12:42.895Z,25.42
2022-11-28T01:15:14.901Z,25.42
2022-11-28T01:17:44.085Z,18.67
2022-11-28T01:20:14.137Z,21.60
2022-11-28T01:22:43.350Z,13.07
2022-11-28T01:25:12.449Z,18.73
2022-11-28T01:27:46.421Z,28.13
2022-11-28T01:30:18.424Z,22.83
2022-11-28T01:32:53.300Z,29.73
2022-11-28T01:35:25.409Z,22.52
2022-11-28T01:37:56.701Z,19.10
2022-11-28T01:40:29.178Z,20.65
2022-11-28T01:43:04.159Z,16.92
2022-11-28T01:45:38.984Z,16.52
2022-11-28T01:48:13.161Z,23.42
2022-11-28T01:50:51.018Z,23.80
2022-11-28T01:53:23.693Z,17.50
2022-11-28T01:56:04.568Z,17.92
2022-11-28T01:58:37.682Z,12.25
2022-11-28T02:01:07.963Z,11.75
2022-11-28T02:03:52.235Z,10.95
2022-11-28T02:06:25.987Z,12.98
2022-11-28T02:08:57.485Z,10.85
2022-11-28T02:12:06.621Z,18.70
2022-11-28T02:15:22.015Z,13.93
2022-11-28T02:18:50.160Z,12.35
2022-11-28T02:21:37.615Z,13.50
2022-11-28T02:24:40.104Z,25.52
2022-11-28T02:27:39.958Z,8.70
2022-11-28T02:30:39.977Z,13.80
2022-11-28T02:33:56.307Z,12.13
2022-11-28T02:36:52.363Z,8.68
2022-11-28T02:40:04.901Z,5.15
2022-11-28T02:42:57.659Z,5.85
2022-11-28T02:45:53.821Z,8.32
2022-11-28T02:48:47.194Z,11.70
2022-11-28T02:51:39.923Z,11.18
2022-11-28T02:54:16.072Z,7.88
2022-11-28T02:56:57.453Z,11.90
2022-11-28T02:59:38.835Z,18.10
2022-11-28T03:02:29.788Z,8.00
2022-11-28T03:05:32.825Z,4.32
2022-11-28T03:08:45.109Z,11.80
2022-11-28T03:11:21.968Z,4.95
2022-11-28T03:14:11.225Z,9.80
2022-11-28T03:17:05.187Z,5.90
2022-11-28T03:19:43.082Z,8.90
2022-11-28T03:22:31.832Z,8.25
2022-11-28T03:25:35.902Z,6.22
2022-11-28T03:28:47.587Z,7.60
2022-11-28T03:31:23.497Z,6.95
2022-11-28T03:34:03.709Z,7.40
2022-11-28T03:36:48.852Z,15.32
2022-11-28T03:39:25.489Z,5.53
2022-11-28T03:42:12.428Z,3.42
2022-11-28T03:45:01.822Z,11.20
2022-11-28T03:47:38.850Z,5.72
2022-11-28T03:50:24.869Z,8.05
2022-11-28T03:53:04.053Z,6.43
2022-11-28T03:56:08.795Z,3.72
2022-11-28T03:58:57.703Z,13.02
2022-11-28T04:02:06.942Z,9.93
2022-11-28T04:05:17.312Z,9.18
2022-11-28T04:08:10.541Z,17.40
2022-11-28T04:10:48.377Z,93.10
2022-11-28T04:13:35.447Z,25.83
2022-11-28T04:16:43.752Z,5.18
2022-11-28T04:19:50.362Z,9.65
2022-11-28T04:22:31.285Z,12.32
2022-11-28T04:25:09.200Z,6.47
2022-11-28T04:27:45.437Z,5.78
2022-11-28T04:30:15.703Z,8.88
2022-11-28T04:32:53.327Z,13.30
2022-11-28T04:35:45.419Z,11.00
2022-11-28T04:38:15.820Z,9.07
2022-11-28T04:41:04.407Z,6.53
2022-11-28T04:43:47.428Z,5.07
2022-11-28T04:46:26.124Z,9.18
2022-11-28T04:48:55.645Z,4.53
2022-11-28T04:52:11.015Z,25.00
2022-11-28T04:54:49.955Z,5.55
2022-11-28T04:57:57.526Z,4.53
2022-11-28T05:00:29.010Z,10.18
2022-11-28T05:02:58.888Z,9.98
2022-11-28T05:05:30.953Z,7.47
2022-11-28T05:08:00.650Z,13.10
2022-11-28T05:10:31.669Z,5.20
2022-11-28T05:13:00.784Z,6.63
2022-11-28T05:15:29.915Z,11.55
2022-11-28T05:17:59.180Z,5.03
2022-11-28T05:20:29.255Z,5.35
2022-11-28T05:22:58.454Z,2.65
2022-11-28T05:25:27.652Z,3.05
2022-11-28T05:27:56.833Z,4.10
2022-11-28T05:30:25.899Z,4.82
2022-11-28T05:32:55.098Z,8.20
2022-11-28T05:35:24.453Z,7.57
2022-11-28T05:37:53.534Z,3.67
2022-11-28T05:40:22.680Z,9.40
2022-11-28T05:42:51.824Z,10.23
2022-11-28T05:45:21.098Z,7.05
2022-11-28T05:47:50.291Z,4.43
2022-11-28T05:50:20.726Z,11.57
2022-11-28T05:52:49.811Z,5.45
2022-11-28T05:55:19.043Z,6.57
2022-11-28T05:57:48.220Z,5.68
2022-11-28T06:00:17.997Z,8.35
2022-11-28T06:02:47.122Z,5.30
2022-11-28T06:05:41.024Z,6.78
2022-11-28T06:08:05.854Z,5.32
2022-11-28T06:10:36.853Z,2.97
2022-11-28T06:13:06.627Z,11.73
2022-11-28T06:15:38.286Z,5.68
2022-11-28T06:18:08.124Z,3.38
2022-11-28T06:20:37.428Z,7.47
2022-11-28T06:23:06.625Z,6.90
2022-11-28T06:25:35.974Z,2.65
2022-11-28T06:28:05.155Z,7.03
2022-11-28T06:30:34.354Z,5.20
2022-11-28T06:33:03.452Z,7.85
2022-11-28T06:35:32.568Z,5.28
2022-11-28T06:38:01.668Z,15.45
2022-11-28T06:40:31.028Z,12.02
2022-11-28T06:43:00.253Z,4.10
2022-11-28T06:45:29.376Z,2.47
2022-11-28T06:47:58.713Z,5.15
2022-11-28T06:50:28.205Z,8.32
2022-11-28T06:52:57.644Z,6.22
2022-11-28T06:55:26.810Z,7.68
2022-11-28T06:57:56.104Z,7.35
2022-11-28T07:00:27.636Z,9.55
2022-11-28T07:02:56.839Z,7.53
2022-11-28T07:05:29.798Z,6.00
2022-11-28T07:08:00.413Z,6.40
2022-11-28T07:10:31.176Z,6.38
2022-11-28T07:13:05.373Z,6.70
2022-11-28T07:15:35.143Z,4.20
2022-11-28T07:18:04.323Z,7.53
2022-11-28T07:20:33.521Z,6.30
2022-11-28T07:23:02.783Z,10.88
2022-11-28T07:25:32.032Z,6.55
2022-11-28T07:28:02.566Z,7.72
2022-11-28T07:30:31.785Z,6.60
2022-11-28T07:33:01.033Z,7.68
2022-11-28T07:35:30.312Z,19.40
2022-11-28T07:37:59.549Z,5.25
2022-11-28T07:40:28.953Z,8.23
2022-11-28T07:42:59.189Z,6.75
2022-11-28T07:45:47.122Z,6.43
2022-11-28T07:48:17.777Z,5.97
2022-11-28T07:50:47.796Z,6.80
2022-11-28T07:53:17.185Z,7.18
2022-11-28T07:55:46.336Z,8.30
2022-11-28T07:58:15.617Z,5.38
2022-11-28T08:00:45.113Z,5.85
2022-11-28T08:03:14.315Z,8.90
2022-11-28T08:05:50.317Z,21.65
2022-11-28T08:08:21.523Z,13.32
2022-11-28T08:10:51.553Z,9.63
2022-11-28T08:13:20.650Z,14.82
2022-11-28T08:15:49.746Z,10.20
2022-11-28T08:18:19.000Z,10.48
2022-11-28T08:20:48.208Z,8.20
2022-11-28T08:23:17.545Z,16.23
2022-11-28T08:25:46.726Z,6.75
2022-11-28T08:28:15.967Z,12.75
2022-11-28T08:30:45.159Z,13.43
2022-11-28T08:33:14.844Z,17.38
2022-11-28T08:35:43.929Z,5.78
2022-11-28T08:38:13.013Z,6.10
2022-11-28T08:40:42.171Z,18.52
2022-11-28T08:43:11.430Z,19.23
2022-11-28T08:45:40.823Z,8.68
2022-11-28T08:48:09.990Z,7.47
2022-11-28T08:50:42.531Z,6.85
2022-11-28T08:53:18.622Z,13.27
2022-11-28T08:55:48.075Z,6.63
2022-11-28T08:58:17.543Z,8.85
2022-11-28T09:00:47.555Z,7.38
2022-11-28T09:03:20.953Z,10.00
2022-11-28T09:05:50.653Z,10.27
2022-11-28T09:08:22.439Z,10.88
2022-11-28T09:10:52.126Z,7.25
2022-11-28T09:13:21.366Z,8.32
2022-11-28T09:15:53.736Z,8.68
2022-11-28T09:18:23.131Z,3.10
2022-11-28T09:20:58.044Z,10.85
2022-11-28T09:23:27.603Z,15.10
2022-11-28T09:25:57.782Z,7.25
2022-11-28T09:28:29.709Z,14.70
2022-11-28T09:31:10.399Z,7.25
2022-11-28T09:33:40.362Z,6.82
2022-11-28T09:36:25.166Z,16.75
2022-11-28T09:38:54.411Z,10.27
2022-11-28T09:42:05.101Z,6.90
2022-11-28T09:44:56.352Z,6.78
2022-11-28T09:47:33.140Z,8.10
2022-11-28T09:50:11.792Z,10.90
2022-11-28T09:53:02.662Z,7.50
2022-11-28T09:55:42.522Z,5.60
2022-11-28T09:58:28.073Z,6.22
2022-11-28T10:01:23.813Z,12.10
2022-11-28T10:04:10.737Z,11.10
2022-11-28T10:07:07.923Z,9.87
2022-11-28T10:09:40.642Z,14.07
2022-11-28T10:12:25.002Z,9.77
2022-11-28T10:15:21.534Z,7.43
2022-11-28T10:18:19.121Z,25.15
2022-11-28T10:20:53.895Z,24.75
2022-11-28T10:23:45.103Z,9.23
2022-11-28T10:26:39.745Z,18.98
2022-11-28T10:29:29.980Z,15.55
2022-11-28T10:32:06.375Z,9.13
2022-11-28T10:35:06.943Z,12.73
2022-11-28T10:37:40.369Z,12.95
2022-11-28T10:40:23.239Z,10.40
2022-11-28T10:43:36.386Z,28.23
2022-11-28T10:46:25.430Z,21.23
2022-11-28T10:49:11.551Z,18.85
2022-11-28T10:51:54.248Z,13.23
2022-11-28T10:55:10.668Z,14.23
2022-11-28T10:58:11.471Z,17.13
2022-11-28T11:00:41.896Z,31.60
2022-11-28T11:03:18.701Z,14.30
2022-11-28T11:05:48.198Z,16.25
2022-11-28T11:08:26.712Z,16.77
2022-11-28T11:11:06.132Z,20.77
2022-11-28T11:14:08.940Z,27.35
2022-11-28T11:17:00.618Z,26.00
2022-11-28T11:19:38.042Z,18.58
2022-11-28T11:22:29.390Z,21.20
2022-11-28T11:25:21.128Z,28.45
2022-11-28T11:27:59.055Z,47.35
2022-11-28T11:30:41.069Z,53.47
2022-11-28T11:33:18.841Z,54.50
2022-11-28T11:35:50.791Z,64.07
2022-11-28T11:38:22.831Z,48.63
2022-11-28T11:40:53.507Z,56.10
2022-11-28T11:43:36.779Z,48.05
2022-11-28T11:46:15.601Z,45.92
2022-11-28T11:48:51.717Z,44.70
2022-11-28T11:51:38.107Z,40.85
2022-11-28T11:54:22.526Z,51.30
2022-11-28T11:57:05.822Z,32.33
2022-11-28T11:59:52.004Z,25.05
2022-11-28T12:02:47.929Z,27.65
2022-11-28T12:05:59.021Z,33.10
2022-11-28T12:08:56.576Z,31.45
2022-11-28T12:11:46.691Z,27.67
2022-11-28T12:14:42.238Z,33.20
2022-11-28T12:17:48.944Z,26.55
2022-11-28T12:21:08.843Z,29.95
2022-11-28T12:24:14.813Z,29.77
2022-11-28T12:27:00.024Z,30.60
2022-11-28T12:29:41.000Z,31.33
2022-11-28T12:33:05.995Z,45.78
2022-11-28T12:36:13.607Z,34.72
2022-11-28T12:39:24.899Z,40.55
2022-11-28T12:42:16.979Z,33.97
2022-11-28T12:45:06.827Z,40.17
2022-11-28T12:48:04.130Z,39.95
2022-11-28T12:50:38.831Z,42.10
2022-11-28T12:54:02.385Z,44.90
2022-11-28T12:56:50.425Z,35.65
2022-11-28T12:59:25.222Z,34.05
2022-11-28T13:02:31.033Z,42.08
2022-11-28T13:05:19.523Z,41.78
2022-11-28T13:07:59.627Z,29.63
2022-11-28T13:10:52.958Z,36.38
2022-11-28T13:13:35.965Z,31.98
2022-11-28T13:16:43.078Z,33.10
2022-11-28T13:19:39.923Z,35.70
2022-11-28T13:23:03.390Z,37.55
2022-11-28T13:25:41.400Z,39.83
2022-11-28T13:28:19.719Z,34.78
2022-11-28T13:33:57.074Z,32.50
2022-11-28T13:39:49.551Z,37.05
2022-11-28T13:43:02.197Z,26.95
2022-11-28T13:45:36.084Z,16.63
2022-11-28T13:49:12.639Z,24.98
2022-11-28T13:51:35.551Z,28.00
2022-11-28T13:54:22.564Z,26.45
2022-11-28T13:57:28.186Z,28.95
2022-11-28T14:00:24.819Z,27.08
2022-11-28T14:03:00.165Z,30.38
2022-11-28T14:05:41.896Z,31.27
2022-11-28T14:08:49.990Z,22.58
2022-11-28T14:12:18.883Z,35.67
2022-11-28T14:15:30.070Z,31.02
2022-11-28T14:18:56.957Z,25.67
2022-11-28T14:21:29.356Z,21.23
2022-11-28T14:24:45.888Z,23.33
2022-11-28T14:27:29.093Z,23.80
2022-11-28T14:30:00.125Z,67.93
2022-11-28T14:32:41.762Z,54.33
2022-11-28T14:35:51.757Z,54.90
2022-11-28T14:38:33.215Z,27.73
2022-11-28T14:41:12.703Z,41.30
2022-11-28T14:43:48.250Z,34.35
2022-11-28T14:46:29.740Z,33.40
2022-11-28T14:49:01.929Z,28.95
2022-11-28T14:51:49.517Z,31.63
2022-11-28T14:54:43.614Z,25.27
2022-11-28T14:57:36.195Z,22.85
2022-11-28T15:00:55.583Z,23.00
2022-11-28T15:04:05.234Z,28.20
2022-11-28T15:06:41.590Z,31.55
2022-11-28T15:09:32.937Z,22.98
2022-11-28T15:12:33.840Z,24.60
2022-11-28T15:15:05.000Z,37.53
2022-11-28T15:17:36.240Z,38.80
2022-11-28T15:20:44.244Z,32.20
2022-11-28T15:26:33.555Z,20.75
2022-11-28T15:29:33.492Z,23.27
2022-11-28T15:32:10.333Z,23.40
2022-11-28T15:35:07.719Z,23.65
2022-11-28T15:37:38.811Z,36.35
2022-11-28T15:40:09.386Z,25.63
2022-11-28T15:42:48.075Z,21.38
2022-11-28T15:45:51.146Z,26.80
2022-11-28T15:48:40.597Z,22.10
2022-11-28T15:51:23.380Z,20.65
2022-11-28T15:53:55.283Z,23.33
2022-11-28T15:56:25.224Z,23.02
2022-11-28T15:58:59.977Z,19.58
2022-11-28T16:01:31.638Z,27.50
2022-11-28T16:04:14.731Z,31.75
2022-11-28T16:06:52.578Z,30.80
2022-11-28T16:09:36.158Z,23.38
2022-11-28T16:12:13.597Z,27.58
2022-11-28T16:14:46.765Z,25.60
2022-11-28T16:17:34.042Z,21.50
2022-11-28T16:20:05.800Z,20.02
2022-11-28T16:22:38.678Z,22.15
2022-11-28T16:25:25.999Z,16.23
2022-11-28T16:27:58.408Z,22.85
2022-11-28T16:30:54.264Z,22.70
2022-11-28T16:34:00.052Z,27.25
2022-11-28T16:36:32.221Z,17.83
2022-11-28T16:39:22.231Z,17.50
2022-11-28T16:42:06.949Z,17.90
2022-11-28T16:44:36.376Z,23.27
2022-11-28T16:47:05.580Z,26.02
2022-11-28T16:50:16.689Z,23.40
2022-11-28T16:52:53.035Z,22.10
2022-11-28T16:55:34.635Z,25.08
2022-11-28T16:58:24.800Z,24.70
2022-11-28T17:01:03.590Z,17.27
2022-11-28T17:03:51.229Z,24.05
2022-11-28T17:06:37.976Z,18.33
2022-11-28T17:09:12.394Z,16.00
2022-11-28T17:12:08.470Z,18.05
2022-11-28T17:14:38.848Z,14.40
2022-11-28T17:17:19.987Z,16.33
2022-11-28T17:19:49.479Z,22.60
2022-11-28T17:22:43.937Z,14.63
2022-11-28T17:25:22.350Z,13.02
2022-11-28T17:30:21.389Z,18.85
2022-11-28T17:32:52.963Z,13.70
2022-11-28T17:35:26.634Z,17.30
2022-11-28T17:37:55.752Z,18.10
2022-11-28T17:40:37.785Z,16.45
2022-11-28T17:43:08.462Z,21.95
2022-11-28T17:45:37.976Z,19.40
2022-11-28T17:48:08.865Z,19.15
2022-11-28T17:50:38.311Z,15.13
2022-11-28T17:53:07.429Z,15.30
2022-11-28T17:55:36.503Z,19.55
2022-11-28T17:58:05.745Z,17.02
2022-11-28T18:00:35.163Z,14.88
2022-11-28T18:03:04.476Z,15.32
2022-11-28T18:05:37.034Z,17.00
2022-11-28T18:08:06.848Z,14.55
2022-11-28T18:10:36.725Z,13.68
2022-11-28T18:13:07.385Z,14.93
2022-11-28T18:15:36.940Z,17.70
2022-11-28T18:18:07.038Z,13.45
2022-11-28T18:20:38.037Z,17.83
2022-11-28T18:23:07.303Z,18.17
2022-11-28T18:25:36.562Z,16.60
2022-11-28T18:28:05.949Z,15.80
2022-11-28T18:30:35.094Z,15.27
2022-11-28T18:33:04.326Z,16.35
2022-11-28T18:35:33.422Z,15.10
2022-11-28T18:38:02.500Z,15.40
2022-11-28T18:40:31.582Z,16.58
2022-11-28T18:43:01.228Z,17.27
2022-11-28T18:45:30.859Z,21.35
2022-11-28T18:48:00.558Z,15.25
2022-11-28T18:50:30.121Z,19.08
2022-11-28T18:52:59.237Z,18.67
2022-11-28T18:55:28.385Z,15.15
2022-11-28T18:57:57.509Z,13.98
2022-11-28T19:00:27.043Z,12.73
2022-11-28T19:02:57.134Z,15.00
2022-11-28T19:05:26.216Z,15.57
2022-11-28T19:07:57.778Z,15.20
2022-11-28T19:10:27.558Z,10.57
2022-11-28T19:12:56.750Z,12.65
2022-11-28T19:15:25.855Z,10.50
2022-11-28T19:17:55.826Z,12.75
2022-11-28T19:20:25.592Z,12.15
2022-11-28T19:22:54.709Z,16.50
2022-11-28T19:25:23.910Z,13.75
2022-11-28T19:27:52.973Z,15.73
2022-11-28T19:30:22.196Z,11.20
2022-11-28T19:32:51.299Z,13.95
2022-11-28T19:35:20.402Z,14.10
2022-11-28T19:37:49.492Z,14.13
2022-11-28T19:40:18.776Z,17.17
2022-11-28T19:42:47.957Z,18.08
2022-11-28T19:45:17.181Z,16.60
2022-11-28T19:47:49.486Z,13.90
2022-11-28T19:50:18.732Z,14.63
2022-11-28T19:52:47.857Z,16.02
2022-11-28T19:55:17.058Z,18.13
2022-11-28T19:57:46.242Z,15.60
2022-11-28T20:00:16.415Z,11.02
2022-11-28T20:02:45.561Z,13.73
2022-11-28T20:05:14.793Z,17.27
2022-11-28T20:07:44.690Z,12.57
2022-11-28T20:10:14.175Z,16.70
2022-11-28T20:12:43.304Z,15.05
2022-11-28T20:15:17.930Z,17.55
2022-11-28T20:17:47.618Z,12.68
2022-11-28T20:20:17.065Z,13.18
2022-11-28T20:22:46.262Z,13.68
2022-11-28T20:25:19.298Z,16.45
2022-11-28T20:27:50.038Z,10.30
2022-11-28T20:30:19.601Z,12.75
2022-11-28T20:32:48.675Z,11.90
2022-11-28T20:35:18.930Z,13.40
2022-11-28T20:37:48.005Z,12.98
2022-11-28T20:40:17.271Z,15.38
2022-11-28T20:42:46.437Z,11.50
2022-11-28T20:45:15.623Z,12.05
2022-11-28T20:47:49.635Z,13.43
2022-11-28T20:50:19.077Z,14.05
2022-11-28T20:52:48.151Z,13.27
2022-11-28T20:55:17.350Z,13.35
2022-11-28T20:57:46.752Z,12.63
2022-11-28T21:00:16.561Z,20.83
2022-11-28T21:02:47.160Z,13.43
2022-11-28T21:05:16.351Z,11.55
2022-11-28T21:07:46.728Z,35.80
2022-11-28T21:10:15.992Z,20.63
2022-11-28T21:12:45.156Z,11.63
2022-11-28T21:15:14.509Z,10.73
2022-11-28T21:17:43.690Z,14.90
2022-11-28T21:20:13.365Z,12.43
2022-11-28T21:22:42.577Z,10.45
2022-11-28T21:25:11.832Z,10.02
2022-11-28T21:27:41.026Z,8.93
2022-11-28T21:30:11.069Z,10.82
2022-11-28T21:32:40.323Z,21.85
2022-11-28T21:35:10.064Z,14.20
2022-11-28T21:37:39.204Z,18.58
2022-11-28T21:40:09.389Z,16.58
2022-11-28T21:42:38.532Z,12.68
2022-11-28T21:45:08.494Z,13.18
2022-11-28T21:47:37.708Z,11.70
2022-11-28T21:50:07.644Z,15.55
2022-11-28T21:52:37.049Z,17.42
2022-11-28T21:55:06.704Z,10.38
2022-11-28T21:57:36.260Z,18.23
2022-11-28T22:00:06.845Z,13.68
2022-11-28T22:02:36.115Z,15.35
2022-11-28T22:05:05.613Z,15.18
2022-11-28T22:07:37.903Z,14.65
2022-11-28T22:10:08.192Z,12.75
2022-11-28T22:12:37.440Z,15.85
2022-11-28T22:17:52.855Z,17.20
2022-11-28T22:20:22.115Z,12.93
2022-11-28T22:22:51.644Z,13.18
2022-11-28T22:25:20.809Z,14.35
2022-11-28T22:27:49.964Z,17.70
2022-11-28T22:30:19.259Z,18.20
2022-11-28T22:32:48.433Z,12.73
2022-11-28T22:35:17.783Z,16.42
2022-11-28T22:37:46.996Z,12.73
2022-11-28T22:40:17.012Z,14.55
2022-11-28T22:42:46.293Z,17.98
2022-11-28T22:45:15.867Z,16.35
2022-11-28T22:47:45.031Z,13.07
2022-11-28T22:50:15.044Z,11.60
2022-11-28T22:52:45.174Z,18.60
2022-11-28T22:55:14.550Z,12.32
2022-11-28T22:57:43.757Z,10.30
2022-11-28T23:00:14.189Z,7.80
2022-11-28T23:02:43.487Z,13.85
2022-11-28T23:05:12.716Z,7.05
2022-11-28T23:07:42.052Z,6.80
2022-11-28T23:10:11.912Z,14.38
2022-11-28T23:12:42.469Z,16.73
2022-11-28T23:15:12.171Z,17.75
2022-11-28T23:17:42.072Z,8.02
2022-11-28T23:20:11.810Z,14.73
2022-11-28T23:22:40.987Z,13.32
2022-11-28T23:25:10.617Z,13.75
2022-11-28T23:27:39.811Z,16.52
2022-11-28T23:30:09.958Z,9.07
2022-11-28T23:32:39.178Z,15.98
2022-11-28T23:35:08.777Z,16.30
2022-11-28T23:37:41.161Z,19.42
2022-11-28T23:40:11.131Z,19.88
2022-11-28T23:42:40.308Z,12.75
2022-11-28T23:45:10.695Z,15.45
2022-11-28T23:47:39.852Z,28.95
2022-11-28T23:50:10.170Z,20.33
2022-11-28T23:52:39.342Z,21.77
2022-11-28T23:55:09.223Z,16.00
2022-11-28T23:57:38.446Z,18.33
